createdAt,value
2022-09-25T00:01:14.794Z,16.57
2022-09-25T00:03:42.959Z,16.58
2022-09-25T00:06:14.353Z,16.61
2022-09-25T00:08:42.094Z,16.56
2022-09-25T00:11:12.046Z,16.51
2022-09-25T00:13:42.683Z,16.29
2022-09-25T00:16:12.582Z,15.77
2022-09-25T00:18:58.059Z,15.48
2022-09-25T00:21:30.440Z,15.92
2022-09-25T00:23:58.544Z,16.12
2022-09-25T00:26:28.695Z,16.17
2022-09-25T00:29:01.026Z,16.26
2022-09-25T00:31:29.376Z,16.29
2022-09-25T00:34:00.046Z,16.28
2022-09-25T00:36:28.369Z,16.23
2022-09-25T00:38:58.270Z,16.21
2022-09-25T00:41:29.278Z,16.21
2022-09-25T00:44:02.289Z,16.20
2022-09-25T00:46:32.965Z,15.95
2022-09-25T00:49:03.264Z,15.65
2022-09-25T00:51:38.427Z,14.96
2022-09-25T00:54:07.858Z,15.10
2022-09-25T00:56:40.408Z,15.44
2022-09-25T00:59:12.637Z,15.43
2022-09-25T01:01:42.541Z,15.45
2022-09-25T01:04:13.391Z,15.52
2022-09-25T01:06:41.944Z,15.49
2022-09-25T01:09:09.818Z,15.52
2022-09-25T01:11:39.588Z,15.66
2022-09-25T01:14:11.071Z,15.83
2022-09-25T01:16:45.532Z,15.89
2022-09-25T01:19:27.243Z,15.89
2022-09-25T01:22:01.235Z,15.91
2022-09-25T01:24:43.937Z,15.94
2022-09-25T01:27:31.588Z,15.89
2022-09-25T01:30:06.851Z,15.97
2022-09-25T01:32:46.152Z,16.02
2022-09-25T01:35:19.323Z,15.77
2022-09-25T01:37:55.048Z,15.78
2022-09-25T01:40:29.351Z,15.92
2022-09-25T01:43:06.011Z,16.03
2022-09-25T01:45:40.787Z,16.07
2022-09-25T01:48:10.383Z,16.12
2022-09-25T01:50:44.320Z,16.15
2022-09-25T01:53:17.381Z,16.13
2022-09-25T01:55:49.665Z,16.13
2022-09-25T01:58:23.225Z,16.20
2022-09-25T02:00:59.284Z,16.14
2022-09-25T02:03:32.313Z,16.14
2022-09-25T02:06:02.507Z,16.11
2022-09-25T02:08:40.170Z,16.15
2022-09-25T02:11:09.781Z,16.16
2022-09-25T02:13:43.237Z,16.08
2022-09-25T02:16:17.435Z,16.14
2022-09-25T02:19:03.630Z,16.13
2022-09-25T02:21:43.603Z,16.07
2022-09-25T02:24:20.331Z,16.14
2022-09-25T02:26:49.577Z,16.07
2022-09-25T02:29:17.521Z,16.13
2022-09-25T02:31:53.656Z,16.11
2022-09-25T02:34:22.222Z,16.17
2022-09-25T02:36:52.203Z,16.17
2022-09-25T02:39:23.763Z,16.22
2022-09-25T02:42:07.027Z,16.22
2022-09-25T02:44:43.506Z,16.25
2022-09-25T02:47:24.220Z,16.22
2022-09-25T02:50:00.916Z,16.16
2022-09-25T02:52:34.740Z,16.19
2022-09-25T02:55:07.935Z,16.19
2022-09-25T02:57:43.428Z,16.22
2022-09-25T03:00:13.296Z,16.23
2022-09-25T03:02:49.602Z,15.48
2022-09-25T03:05:19.344Z,15.87
2022-09-25T03:08:06.816Z,16.04
2022-09-25T03:10:37.814Z,16.14
2022-09-25T03:13:16.328Z,16.17
2022-09-25T03:15:47.624Z,16.23
2022-09-25T03:18:17.109Z,16.15
2022-09-25T03:20:45.148Z,15.75
2022-09-25T03:23:12.950Z,15.74
2022-09-25T03:25:42.793Z,15.93
2022-09-25T03:28:13.814Z,16.04
2022-09-25T03:30:42.020Z,16.11
2022-09-25T03:33:10.647Z,16.17
2022-09-25T03:35:40.074Z,16.21
2022-09-25T03:38:08.693Z,16.22
2022-09-25T03:40:38.498Z,16.21
2022-09-25T03:45:33.071Z,16.21
2022-09-25T03:48:03.157Z,16.21
2022-09-25T03:50:33.393Z,16.20
2022-09-25T03:53:02.483Z,16.24
2022-09-25T03:55:30.193Z,16.23
2022-09-25T03:57:57.925Z,16.25
2022-09-25T04:00:27.791Z,16.29
2022-09-25T04:02:59.300Z,16.31
2022-09-25T04:05:27.071Z,16.26
2022-09-25T04:07:54.767Z,16.24
2022-09-25T04:10:23.858Z,16.23
2022-09-25T04:12:54.354Z,15.46
2022-09-25T04:15:23.124Z,14.98
2022-09-25T04:17:52.086Z,15.39
2022-09-25T04:20:20.450Z,15.20
2022-09-25T04:22:48.086Z,15.33
2022-09-25T04:25:18.508Z,15.60
2022-09-25T04:27:51.179Z,15.77
2022-09-25T04:30:19.093Z,15.88
2022-09-25T04:33:04.282Z,15.92
2022-09-25T04:35:32.045Z,15.97
2022-09-25T04:38:00.083Z,15.98
2022-09-25T04:40:28.018Z,15.99
2022-09-25T04:43:00.895Z,15.94
2022-09-25T04:45:30.955Z,15.92
2022-09-25T04:48:01.049Z,15.96
2022-09-25T04:50:29.799Z,15.99
2022-09-25T04:53:03.799Z,16.02
2022-09-25T04:55:31.577Z,16.05
2022-09-25T04:58:02.166Z,16.03
2022-09-25T05:00:31.822Z,16.05
2022-09-25T05:03:00.104Z,16.04
2022-09-25T05:05:30.847Z,16.05
2022-09-25T05:08:00.213Z,16.05
2022-09-25T05:10:29.874Z,15.72
2022-09-25T05:12:58.792Z,15.79
2022-09-25T05:15:29.236Z,15.76
2022-09-25T05:18:04.242Z,15.74
2022-09-25T05:20:32.585Z,15.77
2022-09-25T05:23:03.460Z,15.82
2022-09-25T05:25:33.914Z,15.86
2022-09-25T05:28:03.937Z,15.90
2022-09-25T05:30:35.034Z,15.92
2022-09-25T05:33:02.844Z,15.89
2022-09-25T05:35:32.450Z,15.91
2022-09-25T05:38:00.758Z,15.84
2022-09-25T05:40:28.900Z,15.88
2022-09-25T05:42:57.017Z,15.91
2022-09-25T05:45:24.984Z,15.94
2022-09-25T05:48:03.006Z,15.97
2022-09-25T05:50:32.277Z,15.97
2022-09-25T05:53:00.775Z,16.00
2022-09-25T05:55:31.893Z,16.04
2022-09-25T05:58:03.498Z,16.02
2022-09-25T06:00:33.168Z,16.02
2022-09-25T06:03:02.703Z,16.04
2022-09-25T06:05:31.114Z,16.08
2022-09-25T06:07:58.825Z,16.09
2022-09-25T06:10:29.422Z,16.02
2022-09-25T06:12:59.616Z,15.89
2022-09-25T06:15:30.569Z,15.97
2022-09-25T06:17:58.777Z,15.86
2022-09-25T06:20:28.030Z,15.68
2022-09-25T06:22:56.543Z,15.89
2022-09-25T06:25:29.001Z,15.99
2022-09-25T06:27:58.017Z,16.06
2022-09-25T06:30:27.519Z,16.12
2022-09-25T06:32:58.201Z,16.16
2022-09-25T06:35:25.926Z,16.13
2022-09-25T06:37:58.386Z,16.17
2022-09-25T06:40:27.940Z,16.24
2022-09-25T06:42:59.449Z,16.28
2022-09-25T06:45:28.406Z,16.30
2022-09-25T06:48:01.600Z,16.26
2022-09-25T06:50:33.042Z,16.28
2022-09-25T06:53:02.212Z,16.36
2022-09-25T06:55:32.263Z,16.39
2022-09-25T06:58:02.712Z,16.44
2022-09-25T07:00:30.772Z,16.16
2022-09-25T07:03:15.756Z,16.13
2022-09-25T07:05:44.631Z,16.10
2022-09-25T07:08:16.228Z,16.32
2022-09-25T07:10:49.301Z,16.40
2022-09-25T07:13:17.890Z,16.44
2022-09-25T07:15:53.014Z,16.49
2022-09-25T07:18:28.539Z,16.44
2022-09-25T07:21:02.758Z,16.49
2022-09-25T07:23:33.446Z,16.40
2022-09-25T07:26:06.707Z,16.33
2022-09-25T07:28:34.987Z,16.52
2022-09-25T07:31:11.919Z,16.61
2022-09-25T07:33:39.665Z,16.69
2022-09-25T07:36:08.329Z,16.77
2022-09-25T07:38:37.633Z,16.83
2022-09-25T07:41:06.325Z,16.61
2022-09-25T07:43:34.655Z,16.76
2022-09-25T07:46:02.637Z,16.05
2022-09-25T07:48:31.602Z,16.21
2022-09-25T07:51:01.208Z,16.60
2022-09-25T07:53:28.926Z,16.80
2022-09-25T07:56:06.128Z,16.84
2022-09-25T07:58:35.672Z,17.02
2022-09-25T08:01:05.957Z,17.10
2022-09-25T08:03:34.671Z,17.03
2022-09-25T08:06:04.116Z,17.06
2022-09-25T08:08:33.990Z,17.26
2022-09-25T08:11:07.951Z,17.31
2022-09-25T08:13:39.147Z,16.89
2022-09-25T08:16:12.017Z,16.97
2022-09-25T08:18:41.405Z,16.93
2022-09-25T08:21:10.192Z,17.14
2022-09-25T08:23:38.089Z,17.11
2022-09-25T08:26:07.724Z,16.91
2022-09-25T08:28:35.916Z,16.68
2022-09-25T08:31:04.762Z,16.65
2022-09-25T08:33:34.429Z,16.91
2022-09-25T08:36:04.360Z,17.15
2022-09-25T08:38:33.146Z,17.20
2022-09-25T08:41:05.911Z,17.15
2022-09-25T08:43:38.655Z,17.23
2022-09-25T08:46:35.731Z,17.24
2022-09-25T08:49:05.921Z,17.38
2022-09-25T08:51:37.092Z,17.52
2022-09-25T08:54:06.343Z,17.58
2022-09-25T08:56:36.387Z,17.56
2022-09-25T08:59:11.389Z,17.70
2022-09-25T09:01:46.643Z,17.51
2022-09-25T09:04:20.347Z,17.49
2022-09-25T09:07:24.625Z,17.40
2022-09-25T09:09:45.331Z,17.40
2022-09-25T09:12:15.861Z,16.98
2022-09-25T09:14:48.362Z,16.86
2022-09-25T09:17:19.734Z,16.99
2022-09-25T09:19:50.084Z,17.10
2022-09-25T09:22:24.021Z,17.10
2022-09-25T09:24:56.356Z,16.96
2022-09-25T09:27:36.183Z,16.09
2022-09-25T09:30:14.197Z,15.84
2022-09-25T09:32:56.296Z,16.76
2022-09-25T09:35:33.833Z,16.84
2022-09-25T09:38:11.903Z,16.97
2022-09-25T09:40:55.605Z,17.09
2022-09-25T09:43:38.877Z,17.36
2022-09-25T09:46:18.019Z,17.49
2022-09-25T09:48:56.587Z,17.30
2022-09-25T09:51:29.694Z,17.09
2022-09-25T09:54:04.852Z,17.18
2022-09-25T09:56:35.676Z,17.29
2022-09-25T09:59:08.019Z,17.43
2022-09-25T10:01:42.024Z,17.29
2022-09-25T10:04:12.854Z,17.46
2022-09-25T10:06:48.346Z,17.54
2022-09-25T10:09:17.694Z,17.52
2022-09-25T10:11:48.177Z,17.61
2022-09-25T10:14:20.944Z,17.67
2022-09-25T10:16:51.763Z,17.41
2022-09-25T10:19:22.373Z,17.19
2022-09-25T10:21:54.690Z,17.34
2022-09-25T10:24:53.436Z,17.16
2022-09-25T10:27:27.457Z,17.45
2022-09-25T10:30:15.523Z,16.88
2022-09-25T10:32:52.366Z,16.50
2022-09-25T10:35:28.066Z,16.70
2022-09-25T10:37:57.453Z,16.83
2022-09-25T10:40:31.844Z,16.74
2022-09-25T10:43:20.648Z,16.19
2022-09-25T10:45:49.666Z,15.73
2022-09-25T10:48:45.327Z,15.99
2022-09-25T10:51:18.317Z,16.12
2022-09-25T10:53:46.709Z,16.35
2022-09-25T10:56:20.418Z,16.62
2022-09-25T10:58:53.944Z,16.30
2022-09-25T11:01:23.246Z,16.18
2022-09-25T11:03:56.553Z,16.66
2022-09-25T11:06:27.129Z,16.86
2022-09-25T11:09:10.226Z,16.48
2022-09-25T11:11:41.080Z,16.74
2022-09-25T11:14:21.001Z,17.04
2022-09-25T11:16:52.584Z,17.00
2022-09-25T11:19:27.026Z,16.09
2022-09-25T11:22:07.734Z,16.53
2022-09-25T11:24:54.878Z,17.10
2022-09-25T11:27:35.388Z,17.45
2022-09-25T11:30:06.944Z,17.61
2022-09-25T11:32:50.196Z,16.97
2022-09-25T11:35:33.077Z,17.27
2022-09-25T11:38:09.898Z,17.35
2022-09-25T11:41:07.780Z,17.45
2022-09-25T11:43:46.905Z,17.48
2022-09-25T11:46:23.146Z,17.82
2022-09-25T11:49:00.803Z,17.90
2022-09-25T11:51:46.724Z,18.13
2022-09-25T11:54:33.930Z,18.19
2022-09-25T11:57:09.488Z,18.12
2022-09-25T11:59:48.987Z,18.16
2022-09-25T12:02:25.760Z,17.57
2022-09-25T12:05:16.267Z,18.42
2022-09-25T12:08:19.081Z,18.30
2022-09-25T12:10:58.196Z,18.40
2022-09-25T12:13:34.436Z,18.32
2022-09-25T12:16:13.165Z,18.16
2022-09-25T12:19:02.334Z,17.31
2022-09-25T12:21:36.115Z,17.16
2022-09-25T12:24:12.485Z,17.24
2022-09-25T12:26:52.558Z,17.29
2022-09-25T12:29:34.013Z,17.45
2022-09-25T12:32:08.816Z,17.49
2022-09-25T12:34:56.613Z,17.86
2022-09-25T12:37:35.600Z,17.96
2022-09-25T12:40:07.101Z,17.95
2022-09-25T12:42:44.101Z,18.32
2022-09-25T12:45:19.154Z,18.06
2022-09-25T12:48:00.443Z,17.53
2022-09-25T12:50:32.923Z,17.15
2022-09-25T12:53:06.523Z,17.53
2022-09-25T12:55:40.079Z,17.97
2022-09-25T12:58:21.203Z,17.17
2022-09-25T13:00:54.868Z,17.27
2022-09-25T13:03:29.059Z,17.98
2022-09-25T13:06:08.354Z,18.82
2022-09-25T13:08:42.691Z,19.04
2022-09-25T13:11:17.423Z,18.55
2022-09-25T13:13:50.563Z,18.43
2022-09-25T13:16:22.118Z,18.41
2022-09-25T13:19:11.425Z,18.12
2022-09-25T13:21:41.667Z,18.62
2022-09-25T13:24:14.478Z,18.29
2022-09-25T13:26:47.115Z,18.75
2022-09-25T13:29:23.990Z,18.59
2022-09-25T13:31:53.482Z,18.37
2022-09-25T13:34:24.430Z,18.90
2022-09-25T13:36:55.115Z,19.05
2022-09-25T13:39:46.303Z,19.14
2022-09-25T13:42:22.393Z,19.44
2022-09-25T13:45:07.801Z,19.41
2022-09-25T13:48:00.606Z,19.22
2022-09-25T13:50:34.026Z,19.02
2022-09-25T13:53:24.065Z,18.81
2022-09-25T13:56:18.562Z,18.82
2022-09-25T13:59:21.023Z,18.69
2022-09-25T14:01:53.935Z,19.09
2022-09-25T14:04:28.931Z,18.96
2022-09-25T14:07:06.625Z,19.08
2022-09-25T14:09:35.672Z,19.17
2022-09-25T14:12:10.031Z,18.42
2022-09-25T14:14:45.374Z,17.55
2022-09-25T14:17:17.426Z,18.17
2022-09-25T14:19:48.969Z,18.89
2022-09-25T14:22:24.723Z,18.44
2022-09-25T14:24:53.215Z,18.70
2022-09-25T14:27:26.328Z,18.89
2022-09-25T14:30:03.570Z,18.44
2022-09-25T14:33:00.959Z,18.23
2022-09-25T14:35:37.037Z,18.55
2022-09-25T14:38:45.116Z,19.18
2022-09-25T14:41:43.963Z,19.27
2022-09-25T14:44:30.752Z,19.10
2022-09-25T14:46:58.962Z,18.91
2022-09-25T14:49:30.951Z,18.89
2022-09-25T14:52:03.020Z,18.76
2022-09-25T14:54:36.431Z,18.67
2022-09-25T14:57:05.998Z,18.31
2022-09-25T14:59:40.217Z,18.38
2022-09-25T15:02:18.503Z,18.37
2022-09-25T15:04:47.642Z,18.94
2022-09-25T15:07:17.458Z,18.23
2022-09-25T15:09:48.428Z,18.36
2022-09-25T15:12:20.316Z,18.66
2022-09-25T15:15:02.293Z,19.01
2022-09-25T15:17:31.519Z,19.10
2022-09-25T15:20:03.665Z,18.95
2022-09-25T15:22:34.329Z,18.59
2022-09-25T15:25:05.436Z,18.20
2022-09-25T15:27:33.682Z,18.16
2022-09-25T15:30:01.960Z,17.66
2022-09-25T15:32:38.227Z,17.67
2022-09-25T15:35:21.987Z,17.59
2022-09-25T15:37:50.199Z,17.39
2022-09-25T15:40:28.321Z,17.35
2022-09-25T15:42:57.104Z,17.41
2022-09-25T15:45:46.130Z,17.58
2022-09-25T15:48:22.131Z,17.32
2022-09-25T15:50:52.910Z,16.98
2022-09-25T15:53:24.910Z,17.27
2022-09-25T15:56:05.106Z,17.45
2022-09-25T15:58:46.098Z,17.25
2022-09-25T16:01:35.948Z,17.10
2022-09-25T16:04:25.630Z,17.01
2022-09-25T16:06:55.161Z,17.14
2022-09-25T16:09:32.955Z,17.14
2022-09-25T16:12:23.130Z,16.50
2022-09-25T16:14:51.948Z,16.62
2022-09-25T16:17:25.719Z,16.14
2022-09-25T16:20:01.732Z,16.76
2022-09-25T16:22:38.534Z,16.48
2022-09-25T16:25:17.028Z,16.64
2022-09-25T16:27:46.935Z,16.33
2022-09-25T16:30:19.651Z,16.72
2022-09-25T16:32:49.967Z,16.81
2022-09-25T16:35:25.000Z,16.96
2022-09-25T16:37:55.072Z,16.84
2022-09-25T16:40:28.775Z,16.65
2022-09-25T16:42:58.869Z,16.93
2022-09-25T16:45:29.724Z,17.05
2022-09-25T16:47:58.870Z,16.89
2022-09-25T16:50:29.214Z,16.57
2022-09-25T16:52:58.444Z,16.66
2022-09-25T16:55:29.252Z,16.63
2022-09-25T16:58:03.492Z,16.42
2022-09-25T17:00:31.673Z,16.63
2022-09-25T17:02:59.683Z,15.98
2022-09-25T17:05:30.508Z,16.25
2022-09-25T17:08:15.695Z,15.50
2022-09-25T17:10:43.603Z,15.44
2022-09-25T17:13:14.661Z,15.47
2022-09-25T17:15:44.225Z,15.86
2022-09-25T17:18:19.484Z,15.54
2022-09-25T17:20:47.708Z,15.27
2022-09-25T17:23:19.232Z,15.99
2022-09-25T17:25:50.701Z,16.27
2022-09-25T17:28:18.811Z,15.91
2022-09-25T17:30:48.825Z,15.90
2022-09-25T17:33:19.587Z,16.13
2022-09-25T17:35:51.634Z,16.21
2022-09-25T17:38:20.882Z,16.26
2022-09-25T17:40:52.235Z,16.14
2022-09-25T17:43:22.736Z,16.17
2022-09-25T17:45:54.566Z,16.20
2022-09-25T17:48:27.203Z,16.23
2022-09-25T17:50:57.046Z,16.34
2022-09-25T17:53:28.458Z,16.10
2022-09-25T17:55:56.234Z,16.19
2022-09-25T17:58:25.628Z,16.39
2022-09-25T18:00:54.825Z,16.28
2022-09-25T18:03:22.955Z,16.36
2022-09-25T18:05:50.860Z,16.45
2022-09-25T18:08:19.460Z,16.41
2022-09-25T18:10:49.815Z,16.42
2022-09-25T18:13:20.153Z,16.36
2022-09-25T18:15:49.932Z,16.09
2022-09-25T18:18:20.263Z,16.18
2022-09-25T18:21:09.596Z,15.92
2022-09-25T18:23:38.633Z,15.95
2022-09-25T18:26:10.021Z,15.55
2022-09-25T18:28:37.777Z,15.57
2022-09-25T18:31:05.893Z,15.74
2022-09-25T18:33:33.660Z,15.73
2022-09-25T18:36:01.483Z,15.56
2022-09-25T18:38:29.221Z,15.87
2022-09-25T18:40:57.092Z,15.70
2022-09-25T18:43:26.277Z,15.80
2022-09-25T18:45:54.316Z,15.80
2022-09-25T18:48:22.184Z,15.75
2022-09-25T18:50:50.691Z,15.77
2022-09-25T18:53:19.038Z,15.94
2022-09-25T18:55:46.781Z,15.79
2022-09-25T18:58:14.709Z,15.73
2022-09-25T19:00:43.817Z,15.03
2022-09-25T19:03:11.525Z,15.37
2022-09-25T19:05:39.340Z,15.37
2022-09-25T19:08:07.494Z,15.47
2022-09-25T19:10:35.290Z,15.46
2022-09-25T19:13:03.034Z,15.63
2022-09-25T19:15:31.091Z,15.74
2022-09-25T19:18:00.301Z,15.50
2022-09-25T19:20:28.301Z,15.57
2022-09-25T19:22:56.026Z,15.42
2022-09-25T19:25:23.781Z,15.38
2022-09-25T19:27:51.461Z,15.42
2022-09-25T19:30:19.196Z,15.58
2022-09-25T19:32:46.872Z,15.48
2022-09-25T19:35:16.364Z,15.45
2022-09-25T19:37:44.352Z,15.44
2022-09-25T19:40:29.946Z,14.63
2022-09-25T19:42:58.435Z,14.73
2022-09-25T19:45:26.263Z,14.93
2022-09-25T19:47:53.927Z,14.85
2022-09-25T19:50:23.106Z,15.06
2022-09-25T19:52:51.476Z,14.90
2022-09-25T19:55:19.736Z,15.16
2022-09-25T19:57:47.810Z,15.32
2022-09-25T20:00:17.211Z,15.25
2022-09-25T20:02:46.510Z,15.24
2022-09-25T20:05:14.532Z,14.96
2022-09-25T20:07:43.582Z,14.98
2022-09-25T20:10:11.379Z,14.63
2022-09-25T20:12:39.185Z,15.13
2022-09-25T20:15:08.095Z,15.13
2022-09-25T20:17:35.832Z,15.13
2022-09-25T20:20:03.965Z,15.34
2022-09-25T20:22:32.433Z,15.24
2022-09-25T20:25:01.501Z,15.18
2022-09-25T20:27:29.190Z,15.17
2022-09-25T20:29:59.535Z,15.20
2022-09-25T20:32:27.223Z,15.06
2022-09-25T20:34:54.971Z,14.98
2022-09-25T20:37:23.530Z,14.90
2022-09-25T20:39:51.531Z,14.91
2022-09-25T20:42:21.324Z,15.00
2022-09-25T20:44:49.407Z,15.03
2022-09-25T20:47:18.348Z,14.91
2022-09-25T20:49:46.216Z,14.69
2022-09-25T20:52:14.498Z,14.70
2022-09-25T20:54:42.805Z,14.65
2022-09-25T20:57:12.918Z,14.82
2022-09-25T20:59:42.063Z,14.87
2022-09-25T21:02:10.191Z,14.77
2022-09-25T21:04:40.232Z,14.78
2022-09-25T21:07:10.903Z,14.67
2022-09-25T21:09:40.812Z,14.80
2022-09-25T21:12:08.474Z,14.77
2022-09-25T21:14:37.786Z,14.83
2022-09-25T21:17:07.005Z,14.68
2022-09-25T21:19:34.931Z,14.84
2022-09-25T21:22:02.626Z,14.56
2022-09-25T21:24:32.465Z,14.75
2022-09-25T21:27:00.229Z,14.65
2022-09-25T21:29:28.133Z,14.75
2022-09-25T21:31:56.453Z,14.81
2022-09-25T21:34:26.411Z,14.89
2022-09-25T21:36:54.137Z,15.09
2022-09-25T21:39:21.807Z,15.15
2022-09-25T21:41:50.317Z,15.01
2022-09-25T21:44:21.269Z,14.95
2022-09-25T21:46:48.951Z,15.10
2022-09-25T21:49:19.079Z,15.12
2022-09-25T21:51:49.451Z,15.09
2022-09-25T21:54:17.966Z,15.14
2022-09-25T21:56:48.555Z,15.07
2022-09-25T21:59:16.562Z,14.85
2022-09-25T22:01:44.446Z,14.98
2022-09-25T22:04:13.679Z,15.08
2022-09-25T22:06:43.649Z,14.75
2022-09-25T22:09:16.658Z,15.05
2022-09-25T22:11:44.918Z,14.92
2022-09-25T22:14:16.706Z,14.90
2022-09-25T22:16:46.430Z,14.81
2022-09-25T22:19:16.413Z,14.78
2022-09-25T22:21:45.969Z,14.93
2022-09-25T22:24:15.232Z,15.02
2022-09-25T22:26:44.998Z,14.86
2022-09-25T22:29:13.594Z,14.74
2022-09-25T22:31:43.149Z,14.85
2022-09-25T22:34:17.708Z,15.10
2022-09-25T22:36:45.624Z,15.00
2022-09-25T22:39:16.863Z,14.79
2022-09-25T22:41:45.186Z,14.90
2022-09-25T22:44:12.900Z,14.90
2022-09-25T22:46:40.620Z,14.81
2022-09-25T22:49:08.508Z,14.96
2022-09-25T22:51:36.300Z,15.02
2022-09-25T22:54:04.574Z,14.98
2022-09-25T22:56:35.427Z,15.03
2022-09-25T22:59:06.958Z,15.00
2022-09-25T23:01:39.563Z,15.08
2022-09-25T23:04:10.989Z,14.99
2022-09-25T23:06:41.451Z,14.83
2022-09-25T23:09:16.047Z,14.72
2022-09-25T23:11:45.544Z,14.77
2022-09-25T23:14:16.874Z,14.84
2022-09-25T23:16:46.370Z,14.91
2022-09-25T23:19:15.383Z,14.95
2022-09-25T23:21:44.357Z,14.99
2022-09-25T23:24:14.269Z,14.86
2022-09-25T23:26:42.503Z,14.90
2022-09-25T23:29:13.023Z,15.00
2022-09-25T23:31:41.277Z,15.08
2022-09-25T23:34:09.404Z,15.13
2022-09-25T23:36:39.934Z,15.08
2022-09-25T23:39:09.352Z,14.95
2022-09-25T23:41:39.182Z,14.90
2022-09-25T23:44:10.151Z,14.97
2022-09-25T23:46:40.910Z,15.01
2022-09-25T23:49:10.136Z,14.99
2022-09-25T23:51:38.522Z,14.38
2022-09-25T23:54:06.901Z,14.62
2022-09-25T23:56:35.665Z,14.73
2022-09-25T23:59:05.436Z,14.72
